Time;durP1;ratioP1;P1;durP2;ratioP2;P2;SDS_P1;SDS_P2;PMS_P1;PMS_P2;Temp;Humidity;BMP_temperature;BMP_pressure;BME280_temperature;BME280_humidity;BME280_pressure;Samples;Min_cycle;Max_cycle;Signal;HPM_P1;HPM_P2
2024/03/31 00:00:18;;;;;;;2.75;1.30;;;;;;;;;;5126190;27;20047;-60
2024/03/31 00:02:43;;;;;;;2.35;1.20;;;;;;;;;;5124752;28;20149;-59
2024/03/31 00:05:09;;;;;;;2.88;1.20;;;;;;;;;;5130104;27;20110;-61
2024/03/31 00:07:35;;;;;;;5.20;1.52;;;;;;;;;;5119580;27;20063;-61
2024/03/31 00:10:00;;;;;;;4.47;1.20;;;;;;;;;;5114431;28;20042;-58
2024/03/31 00:12:27;;;;;;;3.28;1.42;;;;;;;;;;5106570;27;20031;-60
2024/03/31 00:14:52;;;;;;;3.28;1.15;;;;;;;;;;5112178;28;20126;-59
2024/03/31 00:17:17;;;;;;;3.45;1.30;;;;;;;;;;5112251;28;20180;-61
2024/03/31 00:19:43;;;;;;;2.97;1.25;;;;;;;;;;5112768;28;20024;-60
2024/03/31 00:22:09;;;;;;;6.20;1.27;;;;;;;;;;5111276;27;20095;-60
2024/03/31 00:24:34;;;;;;;6.80;1.38;;;;;;;;;;5110828;28;20557;-54
2024/03/31 00:27:00;;;;;;;6.57;1.55;;;;;;;;;;5109469;27;20036;-51
2024/03/31 00:29:25;;;;;;;3.50;1.33;;;;;;;;;;5111216;28;20108;-51
2024/03/31 00:31:50;;;;;;;2.60;1.20;;;;;;;;;;5116149;27;20039;-53
2024/03/31 00:34:16;;;;;;;5.85;1.38;;;;;;;;;;5116442;27;20035;-51
2024/03/31 00:36:41;;;;;;;3.50;1.23;;;;;;;;;;5112564;28;20053;-49
2024/03/31 00:39:07;;;;;;;3.95;1.40;;;;;;;;;;5112881;28;20667;-54
2024/03/31 00:41:33;;;;;;;5.07;1.33;;;;;;;;;;5109878;28;20106;-53
2024/03/31 00:43:59;;;;;;;3.15;1.48;;;;;;;;;;5113155;28;20023;-54
2024/03/31 00:46:25;;;;;;;4.97;1.30;;;;;;;;;;5110193;27;20452;-49
2024/03/31 00:48:50;;;;;;;4.00;1.38;;;;;;;;;;5110804;28;20035;-48
2024/03/31 00:51:15;;;;;;;3.28;1.15;;;;;;;;;;5111392;28;20028;-52
2024/03/31 00:53:41;;;;;;;4.53;1.10;;;;;;;;;;5107549;28;20055;-53
2024/03/31 00:56:06;;;;;;;4.80;1.48;;;;;;;;;;5108890;28;20039;-51
2024/03/31 00:58:31;;;;;;;3.97;1.30;;;;;;;;;;5112600;27;20043;-51
2024/03/31 01:00:57;;;;;;;3.63;1.25;;;;;;;;;;5109644;28;20047;-51
2024/03/31 01:03:30;;;;;;;2.63;0.93;;;;;;;;;;5104396;28;20035;-53
2024/03/31 01:05:58;;;;;;;2.72;1.27;;;;;;;;;;5097640;28;20118;-51
2024/03/31 01:08:24;;;;;;;5.38;1.33;;;;;;;;;;5091240;28;20036;-49
2024/03/31 01:10:49;;;;;;;1.75;0.98;;;;;;;;;;5109009;28;20039;-52
2024/03/31 01:13:14;;;;;;;2.83;1.13;;;;;;;;;;5110268;28;20027;-55
2024/03/31 01:15:40;;;;;;;2.13;1.05;;;;;;;;;;5102264;28;20040;-51
2024/03/31 01:18:05;;;;;;;6.50;1.30;;;;;;;;;;5112040;28;20047;-52
2024/03/31 01:20:31;;;;;;;4.07;1.33;;;;;;;;;;5111796;28;20160;-49
2024/03/31 01:22:57;;;;;;;2.80;1.10;;;;;;;;;;5111638;28;20642;-50
2024/03/31 01:25:22;;;;;;;3.60;1.40;;;;;;;;;;5110290;28;20153;-49
2024/03/31 01:27:47;;;;;;;2.30;1.20;;;;;;;;;;5116999;27;20035;-51
2024/03/31 01:30:13;;;;;;;2.08;1.02;;;;;;;;;;5112681;27;20518;-54
2024/03/31 01:32:39;;;;;;;2.53;1.20;;;;;;;;;;5111522;28;20532;-50
2024/03/31 01:35:04;;;;;;;5.93;1.40;;;;;;;;;;5111615;28;20059;-52
2024/03/31 01:37:29;;;;;;;2.38;1.15;;;;;;;;;;5111450;28;20036;-54
2024/03/31 01:39:55;;;;;;;2.55;1.10;;;;;;;;;;5111812;28;20118;-51
2024/03/31 01:42:22;;;;;;;2.05;1.13;;;;;;;;;;5111455;28;20061;-50
2024/03/31 01:44:48;;;;;;;3.65;1.15;;;;;;;;;;5111682;28;20051;-50
2024/03/31 01:47:13;;;;;;;3.25;1.30;;;;;;;;;;5111429;28;20032;-52
2024/03/31 01:49:38;;;;;;;3.40;1.15;;;;;;;;;;5111762;28;20077;-54
2024/03/31 01:52:04;;;;;;;2.45;1.05;;;;;;;;;;5110582;28;20036;-57
2024/03/31 01:54:29;;;;;;;2.72;1.20;;;;;;;;;;5111887;27;20081;-57
2024/03/31 01:56:54;;;;;;;2.05;1.00;;;;;;;;;;5111523;28;20475;-58
2024/03/31 01:59:20;;;;;;;2.38;1.10;;;;;;;;;;5110852;28;20874;-59
2024/03/31 02:01:46;;;;;;;2.92;1.27;;;;;;;;;;5110915;28;20474;-57
2024/03/31 02:04:11;;;;;;;1.95;1.10;;;;;;;;;;5111348;28;20027;-59
2024/03/31 02:06:36;;;;;;;2.55;1.10;;;;;;;;;;5110471;28;20057;-52
2024/03/31 02:09:02;;;;;;;2.13;1.02;;;;;;;;;;5111321;28;20036;-52
2024/03/31 02:11:27;;;;;;;3.03;1.10;;;;;;;;;;5109594;28;20122;-49
2024/03/31 02:14:07;;;;;;;2.25;1.02;;;;;;;;;;5109803;28;20043;-50
2024/03/31 02:16:33;;;;;;;1.70;0.98;;;;;;;;;;5110360;28;20041;-59
2024/03/31 02:18:58;;;;;;;5.43;1.17;;;;;;;;;;5111109;27;20157;-57
2024/03/31 02:21:23;;;;;;;2.13;0.90;;;;;;;;;;5110140;28;20042;-60
2024/03/31 02:23:49;;;;;;;5.30;1.10;;;;;;;;;;5110435;28;20049;-59
2024/03/31 02:26:14;;;;;;;1.90;1.00;;;;;;;;;;5110408;28;20492;-60
2024/03/31 02:28:39;;;;;;;2.72;1.00;;;;;;;;;;5110093;28;20632;-59
2024/03/31 02:31:05;;;;;;;1.20;0.73;;;;;;;;;;5111039;27;20027;-52
2024/03/31 02:33:30;;;;;;;2.22;1.10;;;;;;;;;;5109634;28;20036;-51
2024/03/31 02:35:55;;;;;;;3.17;0.90;;;;;;;;;;5110211;28;20062;-51
2024/03/31 02:38:20;;;;;;;2.67;1.00;;;;;;;;;;5110393;28;20102;-55
2024/03/31 02:40:46;;;;;;;2.13;0.90;;;;;;;;;;5110453;28;20078;-53
2024/03/31 02:43:12;;;;;;;2.35;1.20;;;;;;;;;;5114480;28;20431;-51
2024/03/31 02:45:37;;;;;;;2.20;1.08;;;;;;;;;;5110693;28;20039;-53
2024/03/31 02:48:03;;;;;;;1.63;0.90;;;;;;;;;;5109703;28;20028;-51
2024/03/31 02:50:30;;;;;;;1.70;0.88;;;;;;;;;;5110032;28;20573;-50
2024/03/31 02:52:56;;;;;;;1.73;1.00;;;;;;;;;;5110461;28;20088;-52
2024/03/31 02:55:21;;;;;;;2.30;1.10;;;;;;;;;;5109783;28;20119;-49
2024/03/31 02:57:47;;;;;;;3.92;1.00;;;;;;;;;;5110421;28;20074;-52
2024/03/31 03:00:13;;;;;;;2.10;1.00;;;;;;;;;;5110083;28;20038;-54
2024/03/31 03:02:39;;;;;;;2.47;0.95;;;;;;;;;;5109893;28;20051;-56
2024/03/31 03:05:04;;;;;;;2.03;0.80;;;;;;;;;;5110219;28;20418;-52
2024/03/31 03:07:29;;;;;;;2.13;0.90;;;;;;;;;;5111338;28;20042;-53
2024/03/31 03:09:55;;;;;;;1.88;0.95;;;;;;;;;;5110217;28;20047;-55
2024/03/31 03:12:20;;;;;;;2.58;0.90;;;;;;;;;;5109347;28;20447;-53
2024/03/31 03:14:45;;;;;;;1.80;0.95;;;;;;;;;;5105498;28;20538;-55
2024/03/31 03:17:11;;;;;;;2.22;0.90;;;;;;;;;;5102888;28;20111;-53
2024/03/31 03:19:36;;;;;;;3.20;0.90;;;;;;;;;;5110111;28;20098;-50
2024/03/31 03:22:01;;;;;;;2.03;1.00;;;;;;;;;;5109861;28;20524;-54
2024/03/31 03:24:27;;;;;;;1.75;0.90;;;;;;;;;;5109662;28;20096;-52
2024/03/31 03:26:52;;;;;;;4.95;0.93;;;;;;;;;;5109358;28;20061;-50
2024/03/31 03:29:17;;;;;;;2.42;1.00;;;;;;;;;;5110294;28;20081;-52
2024/03/31 03:31:43;;;;;;;3.53;1.02;;;;;;;;;;5117378;28;20081;-54
2024/03/31 03:34:08;;;;;;;2.10;0.90;;;;;;;;;;5110741;28;20040;-50
2024/03/31 03:36:33;;;;;;;2.53;1.08;;;;;;;;;;5110188;28;20027;-50
2024/03/31 03:38:59;;;;;;;1.60;0.80;;;;;;;;;;5110146;28;20047;-52
2024/03/31 03:41:24;;;;;;;1.00;0.70;;;;;;;;;;5109508;28;20039;-51
2024/03/31 03:43:49;;;;;;;1.88;0.80;;;;;;;;;;5110068;28;20039;-51
2024/03/31 03:46:14;;;;;;;2.30;0.90;;;;;;;;;;5110045;28;20044;-54
2024/03/31 03:48:40;;;;;;;2.75;0.90;;;;;;;;;;5113298;27;20110;-54
2024/03/31 03:51:05;;;;;;;1.52;0.82;;;;;;;;;;5112947;28;20074;-53
2024/03/31 03:53:30;;;;;;;1.73;0.77;;;;;;;;;;5113676;28;20055;-53
2024/03/31 03:55:56;;;;;;;2.22;0.95;;;;;;;;;;5113479;28;20035;-53
2024/03/31 03:58:21;;;;;;;1.58;0.80;;;;;;;;;;5121197;27;20114;-54
2024/03/31 04:00:47;;;;;;;1.80;0.77;;;;;;;;;;5112643;28;20059;-53
2024/03/31 04:03:12;;;;;;;1.35;0.80;;;;;;;;;;5112542;28;20035;-49
2024/03/31 04:05:37;;;;;;;1.42;0.70;;;;;;;;;;5112729;28;20592;-53
2024/03/31 04:08:03;;;;;;;1.10;0.60;;;;;;;;;;5115545;27;20099;-56
2024/03/31 04:10:29;;;;;;;1.77;0.90;;;;;;;;;;5113358;28;20111;-53
2024/03/31 04:12:55;;;;;;;1.30;0.70;;;;;;;;;;5091237;28;20470;-53
2024/03/31 04:15:20;;;;;;;1.67;0.70;;;;;;;;;;5103201;28;20035;-50
2024/03/31 04:17:45;;;;;;;1.98;0.80;;;;;;;;;;5112663;28;20035;-53
2024/03/31 04:20:11;;;;;;;3.67;0.80;;;;;;;;;;5112070;27;20031;-53
2024/03/31 04:22:36;;;;;;;1.55;0.70;;;;;;;;;;5112395;28;20039;-51
2024/03/31 04:25:03;;;;;;;1.27;0.70;;;;;;;;;;5113170;28;20481;-51
2024/03/31 04:27:28;;;;;;;1.98;0.90;;;;;;;;;;5113062;28;20035;-51
2024/03/31 04:29:53;;;;;;;1.45;0.80;;;;;;;;;;5112795;28;20036;-51
2024/03/31 04:32:19;;;;;;;1.52;0.75;;;;;;;;;;5112948;28;20084;-53
2024/03/31 04:34:44;;;;;;;4.97;0.88;;;;;;;;;;5112291;28;20050;-50
2024/03/31 04:37:09;;;;;;;1.77;0.75;;;;;;;;;;5112379;28;20047;-50
2024/03/31 04:39:35;;;;;;;1.48;0.70;;;;;;;;;;5112252;27;20070;-55
2024/03/31 04:42:00;;;;;;;2.10;0.80;;;;;;;;;;5112666;28;20046;-52
2024/03/31 04:44:25;;;;;;;1.20;0.68;;;;;;;;;;5112532;28;20035;-51
2024/03/31 04:46:51;;;;;;;2.30;0.73;;;;;;;;;;5112383;28;20032;-54
2024/03/31 04:49:17;;;;;;;0.75;0.68;;;;;;;;;;5112681;28;20059;-53
2024/03/31 04:51:42;;;;;;;1.52;0.75;;;;;;;;;;5110667;28;20680;-50
2024/03/31 04:54:08;;;;;;;1.58;0.80;;;;;;;;;;5111848;28;20036;-52
2024/03/31 04:56:33;;;;;;;1.58;0.80;;;;;;;;;;5112871;28;20035;-51
2024/03/31 04:58:58;;;;;;;2.35;0.93;;;;;;;;;;5112292;27;20048;-54
2024/03/31 05:01:24;;;;;;;2.30;0.90;;;;;;;;;;5111677;28;20051;-54
2024/03/31 05:03:49;;;;;;;1.58;0.80;;;;;;;;;;5112137;28;20032;-50
2024/03/31 05:06:15;;;;;;;3.78;0.80;;;;;;;;;;5112127;28;20054;-53
2024/03/31 05:08:40;;;;;;;1.30;0.70;;;;;;;;;;5115521;27;20118;-51
2024/03/31 05:11:05;;;;;;;1.52;0.82;;;;;;;;;;5112261;28;20036;-53
2024/03/31 05:13:32;;;;;;;1.73;0.82;;;;;;;;;;5110680;28;20044;-54
2024/03/31 05:16:02;;;;;;;1.42;0.82;;;;;;;;;;5100611;28;20077;-54
2024/03/31 05:18:27;;;;;;;2.08;0.70;;;;;;;;;;5090020;28;20130;-51
2024/03/31 05:20:57;;;;;;;2.67;0.85;;;;;;;;;;5111674;28;20096;-53
2024/03/31 05:23:22;;;;;;;2.17;0.82;;;;;;;;;;5111719;27;20497;-51
2024/03/31 05:25:48;;;;;;;1.80;0.90;;;;;;;;;;5109851;28;20067;-54
2024/03/31 05:28:13;;;;;;;1.35;0.70;;;;;;;;;;5108616;28;20043;-52
2024/03/31 05:30:38;;;;;;;2.25;0.90;;;;;;;;;;5104914;28;20132;-50
2024/03/31 05:33:04;;;;;;;1.42;0.70;;;;;;;;;;5110660;28;20115;-50
2024/03/31 05:35:29;;;;;;;3.30;0.80;;;;;;;;;;5110892;28;20119;-50
2024/03/31 05:37:54;;;;;;;2.58;0.73;;;;;;;;;;5108966;28;20083;-51
2024/03/31 05:40:20;;;;;;;2.42;0.82;;;;;;;;;;5111083;28;20445;-52
2024/03/31 05:42:45;;;;;;;1.42;0.63;;;;;;;;;;5111414;28;20039;-53
2024/03/31 05:45:10;;;;;;;2.03;0.88;;;;;;;;;;5111475;28;20039;-54
2024/03/31 05:47:36;;;;;;;1.70;0.75;;;;;;;;;;5112030;27;20039;-54
2024/03/31 05:50:01;;;;;;;3.50;0.95;;;;;;;;;;5111073;28;20036;-54
2024/03/31 05:52:26;;;;;;;4.25;0.80;;;;;;;;;;5111575;28;20478;-50
2024/03/31 05:54:51;;;;;;;1.65;0.70;;;;;;;;;;5110686;28;20118;-52
2024/03/31 05:57:17;;;;;;;1.35;0.70;;;;;;;;;;5108921;27;20042;-56
2024/03/31 05:59:42;;;;;;;1.27;0.70;;;;;;;;;;5111033;28;20114;-51
2024/03/31 06:02:07;;;;;;;2.45;0.80;;;;;;;;;;5113976;27;20103;-54
2024/03/31 06:04:33;;;;;;;1.67;0.75;;;;;;;;;;5103755;27;20118;-58
2024/03/31 06:06:59;;;;;;;1.70;0.80;;;;;;;;;;5103231;28;20059;-62
2024/03/31 06:09:24;;;;;;;1.67;0.75;;;;;;;;;;5109048;28;20725;-60
2024/03/31 06:11:50;;;;;;;2.72;0.90;;;;;;;;;;5110330;28;20036;-60
2024/03/31 06:14:15;;;;;;;1.02;0.70;;;;;;;;;;5110959;27;20528;-61
2024/03/31 06:16:40;;;;;;;1.42;0.70;;;;;;;;;;5109065;28;20031;-60
2024/03/31 06:19:06;;;;;;;3.10;1.00;;;;;;;;;;5110322;28;20678;-61
2024/03/31 06:21:31;;;;;;;1.50;0.68;;;;;;;;;;5108588;28;20428;-60
2024/03/31 06:23:56;;;;;;;1.88;0.80;;;;;;;;;;5110421;28;20478;-53
2024/03/31 06:26:22;;;;;;;2.08;0.88;;;;;;;;;;5111017;28;20115;-53
2024/03/31 06:28:47;;;;;;;1.27;0.70;;;;;;;;;;5109951;28;20047;-49
2024/03/31 06:31:12;;;;;;;1.38;0.70;;;;;;;;;;5110372;28;20031;-51
2024/03/31 06:33:38;;;;;;;2.22;0.98;;;;;;;;;;5110316;28;20035;-49
2024/03/31 06:36:03;;;;;;;2.35;0.90;;;;;;;;;;5110242;28;20081;-50
2024/03/31 06:38:29;;;;;;;1.65;0.80;;;;;;;;;;5110344;28;20124;-52
2024/03/31 06:40:54;;;;;;;1.08;0.60;;;;;;;;;;5106602;28;20043;-50
2024/03/31 06:43:19;;;;;;;1.88;0.85;;;;;;;;;;5103766;28;20394;-50
2024/03/31 06:45:48;;;;;;;1.58;0.70;;;;;;;;;;5103882;28;20625;-52
2024/03/31 06:48:14;;;;;;;1.38;0.80;;;;;;;;;;5108144;28;20474;-52
2024/03/31 06:50:39;;;;;;;1.35;0.70;;;;;;;;;;5108905;28;20035;-52
2024/03/31 06:53:04;;;;;;;1.13;0.60;;;;;;;;;;5106230;28;20435;-50
2024/03/31 06:55:30;;;;;;;1.58;0.80;;;;;;;;;;5109165;28;20481;-55
2024/03/31 06:57:55;;;;;;;1.77;0.80;;;;;;;;;;5110124;28;20467;-51
2024/03/31 07:00:20;;;;;;;1.05;0.65;;;;;;;;;;5108577;28;20043;-59
2024/03/31 07:02:49;;;;;;;1.17;0.60;;;;;;;;;;5112100;28;20051;-59
2024/03/31 07:05:15;;;;;;;1.50;0.70;;;;;;;;;;5111178;27;20359;-61
2024/03/31 07:07:40;;;;;;;1.85;0.80;;;;;;;;;;5109137;28;20039;-60
2024/03/31 07:10:06;;;;;;;1.70;0.90;;;;;;;;;;5110719;28;20032;-58
2024/03/31 07:12:31;;;;;;;2.13;0.70;;;;;;;;;;5109710;28;20107;-60
2024/03/31 07:14:57;;;;;;;1.70;1.02;;;;;;;;;;5110049;28;20035;-56
2024/03/31 07:17:22;;;;;;;1.70;0.70;;;;;;;;;;5109003;28;20563;-51
2024/03/31 07:19:47;;;;;;;1.58;0.80;;;;;;;;;;5110628;28;20039;-48
2024/03/31 07:22:13;;;;;;;3.38;1.00;;;;;;;;;;5111380;28;20019;-56
2024/03/31 07:24:38;;;;;;;1.45;0.82;;;;;;;;;;5114002;28;20531;-54
2024/03/31 07:27:04;;;;;;;2.60;0.90;;;;;;;;;;5113880;28;20429;-52
2024/03/31 07:29:29;;;;;;;1.45;0.80;;;;;;;;;;5114451;27;20400;-55
2024/03/31 07:31:54;;;;;;;1.80;0.73;;;;;;;;;;5113268;28;20500;-51
2024/03/31 07:34:20;;;;;;;1.33;0.73;;;;;;;;;;5113732;28;20114;-51
2024/03/31 07:36:46;;;;;;;2.33;0.90;;;;;;;;;;5116406;27;20036;-54
2024/03/31 07:39:11;;;;;;;2.03;0.85;;;;;;;;;;5118921;27;20130;-53
2024/03/31 07:41:36;;;;;;;1.52;0.70;;;;;;;;;;5114036;28;20372;-51
2024/03/31 07:44:02;;;;;;;1.88;0.80;;;;;;;;;;5111825;28;20063;-52
2024/03/31 07:46:28;;;;;;;4.53;1.20;;;;;;;;;;5113313;28;20039;-55
2024/03/31 07:48:55;;;;;;;1.83;0.80;;;;;;;;;;5113186;28;20036;-52
2024/03/31 07:51:20;;;;;;;1.52;0.70;;;;;;;;;;5113878;28;20118;-53
2024/03/31 07:53:46;;;;;;;3.17;0.90;;;;;;;;;;5113842;28;20114;-49
2024/03/31 07:56:11;;;;;;;1.65;0.80;;;;;;;;;;5112764;27;20100;-56
2024/03/31 07:58:36;;;;;;;2.13;0.93;;;;;;;;;;5110747;28;20419;-51
2024/03/31 08:01:02;;;;;;;2.35;0.98;;;;;;;;;;5109395;28;20059;-53
2024/03/31 08:03:30;;;;;;;2.45;1.08;;;;;;;;;;5111383;27;20050;-51
2024/03/31 08:05:55;;;;;;;4.45;1.23;;;;;;;;;;5112372;28;20042;-54
2024/03/31 08:08:21;;;;;;;1.90;0.85;;;;;;;;;;5112728;28;20491;-55
2024/03/31 08:10:46;;;;;;;1.52;0.85;;;;;;;;;;5111381;28;20031;-55
2024/03/31 08:13:12;;;;;;;2.28;0.85;;;;;;;;;;5111420;28;20127;-51
2024/03/31 08:15:40;;;;;;;1.92;0.80;;;;;;;;;;5112768;28;20039;-52
2024/03/31 08:18:06;;;;;;;1.77;0.90;;;;;;;;;;5111991;28;20110;-53
2024/03/31 08:20:31;;;;;;;1.70;0.70;;;;;;;;;;5109708;28;20549;-52
2024/03/31 08:22:57;;;;;;;2.75;1.00;;;;;;;;;;5113247;27;20039;-52
2024/03/31 08:25:22;;;;;;;1.75;0.80;;;;;;;;;;5113084;28;20032;-51
2024/03/31 08:27:48;;;;;;;1.90;0.80;;;;;;;;;;5113115;27;20039;-49
2024/03/31 08:30:13;;;;;;;1.73;0.88;;;;;;;;;;5112870;28;20588;-53
2024/03/31 08:32:38;;;;;;;2.97;0.63;;;;;;;;;;5112252;28;20382;-50
2024/03/31 08:35:04;;;;;;;4.90;0.80;;;;;;;;;;5114454;27;20035;-50
2024/03/31 08:37:30;;;;;;;2.88;0.90;;;;;;;;;;5111657;27;20122;-50
2024/03/31 08:39:56;;;;;;;1.98;0.85;;;;;;;;;;5110671;28;20579;-51
2024/03/31 08:42:34;;;;;;;3.70;0.88;;;;;;;;;;5110620;28;20616;-51
2024/03/31 08:45:02;;;;;;;4.63;0.80;;;;;;;;;;5110316;28;20032;-53
2024/03/31 08:47:29;;;;;;;2.00;0.90;;;;;;;;;;5110580;28;20067;-52
2024/03/31 08:49:56;;;;;;;7.15;1.00;;;;;;;;;;5111721;27;20043;-52
2024/03/31 08:52:21;;;;;;;5.88;0.80;;;;;;;;;;5120995;27;20036;-53
2024/03/31 08:54:47;;;;;;;1.83;0.80;;;;;;;;;;5111320;28;20035;-49
2024/03/31 08:57:13;;;;;;;3.28;0.98;;;;;;;;;;5111586;28;20032;-50
2024/03/31 08:59:38;;;;;;;2.72;0.70;;;;;;;;;;5111211;28;20352;-49
2024/03/31 09:02:04;;;;;;;2.15;0.90;;;;;;;;;;5108929;27;20032;-59
2024/03/31 09:04:29;;;;;;;5.50;1.08;;;;;;;;;;5108924;27;20045;-60
2024/03/31 09:06:54;;;;;;;2.03;0.80;;;;;;;;;;5108293;28;20119;-57
2024/03/31 09:09:23;;;;;;;4.32;1.05;;;;;;;;;;5112143;28;20027;-58
2024/03/31 09:11:48;;;;;;;1.92;0.80;;;;;;;;;;5102755;28;20494;-58
2024/03/31 09:14:14;;;;;;;3.58;1.10;;;;;;;;;;5105448;28;20039;-49
2024/03/31 09:16:46;;;;;;;3.45;0.80;;;;;;;;;;5110972;27;20480;-54
2024/03/31 09:19:11;;;;;;;2.53;0.82;;;;;;;;;;5135303;27;20035;-60
2024/03/31 09:21:47;;;;;;;3.63;1.27;;;;;;;;;;5110443;28;20035;-60
2024/03/31 09:24:14;;;;;;;3.25;0.90;;;;;;;;;;5111905;28;20050;-58
2024/03/31 09:26:40;;;;;;;3.08;1.00;;;;;;;;;;5091822;28;20067;-57
2024/03/31 09:29:06;;;;;;;2.47;1.08;;;;;;;;;;5111464;27;20039;-60
2024/03/31 09:31:31;;;;;;;4.53;0.90;;;;;;;;;;5109326;27;20036;-56
2024/03/31 09:33:57;;;;;;;3.00;1.23;;;;;;;;;;5109900;28;20497;-53
2024/03/31 09:36:22;;;;;;;2.50;1.08;;;;;;;;;;5111143;28;20043;-53
2024/03/31 09:38:47;;;;;;;3.22;1.10;;;;;;;;;;5110983;28;20042;-53
2024/03/31 09:41:13;;;;;;;2.70;1.00;;;;;;;;;;5110588;28;20036;-49
2024/03/31 09:43:39;;;;;;;1.23;0.80;;;;;;;;;;5111107;28;20539;-52
2024/03/31 09:46:06;;;;;;;1.83;1.00;;;;;;;;;;5108005;28;20047;-52
2024/03/31 09:48:31;;;;;;;3.22;1.10;;;;;;;;;;5109282;28;20036;-53
2024/03/31 09:51:08;;;;;;;3.08;1.20;;;;;;;;;;5109969;28;20043;-53
2024/03/31 09:53:35;;;;;;;2.53;1.20;;;;;;;;;;5109637;28;20035;-54
2024/03/31 09:56:06;;;;;;;2.67;1.20;;;;;;;;;;5100190;28;20410;-57
2024/03/31 09:58:34;;;;;;;2.30;1.08;;;;;;;;;;5127475;27;20101;-59
2024/03/31 10:01:03;;;;;;;2.00;1.10;;;;;;;;;;5106240;27;20048;-56
2024/03/31 10:03:35;;;;;;;2.63;1.10;;;;;;;;;;5109835;28;20084;-59
2024/03/31 10:06:01;;;;;;;1.47;0.80;;;;;;;;;;5127231;27;20039;-57
2024/03/31 10:08:29;;;;;;;2.45;1.20;;;;;;;;;;5110738;28;20028;-59
2024/03/31 10:10:57;;;;;;;4.97;0.90;;;;;;;;;;5110050;28;20389;-58
2024/03/31 10:13:24;;;;;;;2.22;1.20;;;;;;;;;;5108928;28;20055;-59
2024/03/31 10:15:50;;;;;;;6.30;1.20;;;;;;;;;;5092594;28;20119;-57
2024/03/31 10:18:15;;;;;;;3.85;1.20;;;;;;;;;;5109455;28;20123;-59
2024/03/31 10:20:44;;;;;;;2.65;1.13;;;;;;;;;;5110793;28;20419;-55
2024/03/31 10:23:10;;;;;;;4.55;1.33;;;;;;;;;;5110174;28;20047;-59
2024/03/31 10:25:36;;;;;;;2.88;1.30;;;;;;;;;;5091590;28;20047;-59
2024/03/31 10:28:03;;;;;;;2.40;1.10;;;;;;;;;;5111932;27;20040;-59
2024/03/31 10:30:28;;;;;;;2.35;1.20;;;;;;;;;;5104111;28;20058;-57
2024/03/31 10:32:54;;;;;;;2.55;1.20;;;;;;;;;;5108585;28;20066;-60
2024/03/31 10:35:20;;;;;;;3.75;1.42;;;;;;;;;;5124035;27;20118;-58
2024/03/31 10:37:45;;;;;;;2.83;1.33;;;;;;;;;;5108846;28;20123;-61
2024/03/31 10:40:12;;;;;;;2.47;1.33;;;;;;;;;;5109481;28;20042;-51
2024/03/31 10:42:38;;;;;;;3.70;1.50;;;;;;;;;;5110491;28;20039;-55
2024/03/31 10:45:06;;;;;;;4.43;1.20;;;;;;;;;;5109303;28;20138;-51
2024/03/31 10:47:31;;;;;;;3.13;1.33;;;;;;;;;;5108906;28;20197;-56
2024/03/31 10:49:58;;;;;;;2.85;1.30;;;;;;;;;;5109178;28;20486;-54
2024/03/31 10:52:26;;;;;;;3.78;1.40;;;;;;;;;;5110431;28;20044;-52
2024/03/31 10:54:53;;;;;;;3.28;1.30;;;;;;;;;;5085901;28;21438;-60
2024/03/31 10:57:19;;;;;;;3.30;1.52;;;;;;;;;;5123283;27;20508;-60
2024/03/31 10:59:44;;;;;;;3.22;1.30;;;;;;;;;;5106750;28;20031;-60
2024/03/31 11:02:13;;;;;;;2.80;1.30;;;;;;;;;;5106910;28;20035;-60
2024/03/31 11:04:38;;;;;;;3.22;1.30;;;;;;;;;;5108910;28;20037;-60
2024/03/31 11:07:05;;;;;;;2.35;1.30;;;;;;;;;;5108833;28;20035;-56
2024/03/31 11:09:31;;;;;;;2.60;1.40;;;;;;;;;;5110138;28;20075;-60
2024/03/31 11:11:57;;;;;;;3.97;1.48;;;;;;;;;;5124263;28;20070;-61
2024/03/31 11:14:26;;;;;;;2.88;1.50;;;;;;;;;;5106837;28;20051;-56
2024/03/31 11:16:52;;;;;;;3.67;1.30;;;;;;;;;;5107598;28;20047;-55
2024/03/31 11:19:20;;;;;;;2.17;1.33;;;;;;;;;;5104385;28;20047;-57
2024/03/31 11:21:46;;;;;;;3.17;1.45;;;;;;;;;;5107923;28;20054;-59
2024/03/31 11:24:14;;;;;;;3.15;1.40;;;;;;;;;;5100160;28;20031;-56
2024/03/31 11:26:41;;;;;;;3.17;1.30;;;;;;;;;;5108606;28;20070;-62
2024/03/31 11:29:06;;;;;;;3.42;1.25;;;;;;;;;;5107411;28;20042;-58
2024/03/31 11:31:33;;;;;;;2.83;1.55;;;;;;;;;;5100726;28;20032;-61
2024/03/31 11:33:59;;;;;;;2.65;1.27;;;;;;;;;;5103779;28;20051;-61
2024/03/31 11:36:24;;;;;;;2.28;1.15;;;;;;;;;;5142590;27;20032;-60
2024/03/31 11:38:50;;;;;;;2.40;1.10;;;;;;;;;;5110029;28;20051;-60
2024/03/31 11:41:15;;;;;;;6.53;1.30;;;;;;;;;;5106680;28;20066;-51
2024/03/31 11:43:41;;;;;;;2.33;1.25;;;;;;;;;;5109508;28;20626;-51
2024/03/31 11:46:06;;;;;;;2.13;1.13;;;;;;;;;;5108270;28;20072;-53
2024/03/31 11:48:31;;;;;;;1.77;1.05;;;;;;;;;;5108535;28;20073;-55
2024/03/31 11:50:57;;;;;;;3.03;1.45;;;;;;;;;;5108833;28;20042;-53
2024/03/31 11:53:23;;;;;;;2.20;1.23;;;;;;;;;;5101385;28;20059;-60
2024/03/31 11:55:48;;;;;;;2.50;1.33;;;;;;;;;;5105846;28;20054;-60
2024/03/31 11:58:14;;;;;;;2.30;1.02;;;;;;;;;;5101394;28;20031;-60
2024/03/31 12:00:49;;;;;;;2.08;1.15;;;;;;;;;;5100851;28;20467;-58
2024/03/31 12:03:15;;;;;;;1.90;1.17;;;;;;;;;;5101683;28;20084;-58
2024/03/31 12:06:16;;;;;;;2.25;1.10;;;;;;;;;;5030263;28;20544;-58
2024/03/31 12:09:05;;;;;;;2.22;1.17;;;;;;;;;;4945293;28;20263;-58
2024/03/31 12:12:05;;;;;;;2.35;1.17;;;;;;;;;;4939017;28;20592;-56
2024/03/31 12:14:54;;;;;;;2.42;1.27;;;;;;;;;;4937227;28;20691;-59
2024/03/31 12:18:36;;;;;;;2.10;1.20;;;;;;;;;;4951493;28;20271;-59
2024/03/31 17:52:16;;;;;;;2.45;1.02;;;;;;;;;;4965119;28;20093;-50
2024/03/31 17:54:54;;;;;;;2.97;0.82;;;;;;;;;;4977977;28;20282;-51
2024/03/31 17:57:26;;;;;;;1.27;0.77;;;;;;;;;;4948262;28;20177;-52
2024/03/31 17:59:54;;;;;;;2.83;0.90;;;;;;;;;;4959034;28;20170;-50
2024/03/31 18:02:20;;;;;;;3.15;0.90;;;;;;;;;;4969433;28;20187;-59
2024/03/31 18:05:00;;;;;;;2.33;0.90;;;;;;;;;;4978506;28;20190;-59
2024/03/31 18:07:35;;;;;;;2.30;1.02;;;;;;;;;;4967271;28;20193;-59
2024/03/31 18:10:01;;;;;;;;;;;;;;;;;;4980297;28;20175;-60
2024/03/31 18:12:28;;;;;;;2.40;1.05;;;;;;;;;;4974967;28;20109;-57
2024/03/31 18:14:54;;;;;;;2.75;0.93;;;;;;;;;;4970387;28;20348;-58
2024/03/31 18:17:20;;;;;;;14.90;1.23;;;;;;;;;;4945745;28;20206;-55
2024/03/31 18:19:46;;;;;;;4.75;1.08;;;;;;;;;;4961150;28;20200;-57
2024/03/31 18:22:15;;;;;;;13.80;2.33;;;;;;;;;;4981979;27;20238;-56
2024/03/31 18:24:54;;;;;;;4.00;0.98;;;;;;;;;;4946179;28;20189;-56
2024/03/31 18:27:25;;;;;;;1.80;1.00;;;;;;;;;;4955113;28;20193;-57
2024/03/31 18:29:54;;;;;;;3.58;0.88;;;;;;;;;;4963927;28;20143;-58
2024/03/31 18:32:20;;;;;;;3.35;0.90;;;;;;;;;;4946608;28;20361;-57
2024/03/31 18:34:46;;;;;;;5.65;1.50;;;;;;;;;;4951337;28;20264;-57
2024/03/31 18:37:13;;;;;;;2.70;1.20;;;;;;;;;;4971907;28;20675;-56
2024/03/31 18:39:38;;;;;;;2.38;1.02;;;;;;;;;;4970195;28;20247;-56
2024/03/31 18:42:05;;;;;;;1.88;1.00;;;;;;;;;;4968573;28;20154;-57
2024/03/31 18:44:32;;;;;;;5.72;1.08;;;;;;;;;;4953873;28;20202;-53
2024/03/31 18:46:59;;;;;;;2.45;0.77;;;;;;;;;;4950880;28;20267;-52
2024/03/31 18:49:39;;;;;;;2.95;0.90;;;;;;;;;;4970114;28;20281;-53
2024/03/31 18:52:05;;;;;;;3.60;0.93;;;;;;;;;;4982937;27;20265;-51
2024/03/31 18:54:31;;;;;;;4.10;1.08;;;;;;;;;;4967505;27;20161;-53
2024/03/31 18:57:02;;;;;;;2.58;0.90;;;;;;;;;;4958897;28;20019;-52
2024/03/31 18:59:27;;;;;;;2.00;1.00;;;;;;;;;;4949615;28;20562;-52
2024/03/31 19:01:53;;;;;;;2.10;1.00;;;;;;;;;;4961661;28;20275;-57
2024/03/31 19:04:20;;;;;;;2.17;0.93;;;;;;;;;;4962814;28;20368;-57
2024/03/31 19:06:46;;;;;;;4.10;1.05;;;;;;;;;;4945683;28;20258;-57
2024/03/31 19:09:12;;;;;;;6.35;1.40;;;;;;;;;;4971564;28;20165;-58
2024/03/31 19:11:43;;;;;;;3.50;1.08;;;;;;;;;;4965115;28;20200;-58
2024/03/31 19:14:09;;;;;;;5.20;1.77;;;;;;;;;;4958427;28;20544;-59
2024/03/31 19:16:38;;;;;;;5.00;1.73;;;;;;;;;;4958858;28;20181;-58
2024/03/31 19:19:04;;;;;;;10.27;2.50;;;;;;;;;;4973608;28;20165;-57
2024/03/31 19:21:30;;;;;;;7.03;2.63;;;;;;;;;;5005901;28;20040;-59
2024/03/31 19:23:55;;;;;;;8.35;3.05;;;;;;;;;;5105519;28;20019;-57
2024/03/31 19:26:21;;;;;;;7.90;3.80;;;;;;;;;;5107866;28;20390;-55
2024/03/31 19:28:46;;;;;;;14.48;4.30;;;;;;;;;;5111214;28;20410;-55
2024/03/31 19:31:11;;;;;;;10.52;4.75;;;;;;;;;;5111816;28;20071;-53
2024/03/31 19:33:37;;;;;;;13.88;5.22;;;;;;;;;;5110816;28;20020;-55
2024/03/31 19:36:05;;;;;;;14.45;5.70;;;;;;;;;;5105987;28;20040;-53
2024/03/31 19:38:33;;;;;;;14.75;5.78;;;;;;;;;;5123319;27;20050;-54
2024/03/31 19:40:58;;;;;;;14.60;6.05;;;;;;;;;;5112304;28;20540;-51
2024/03/31 19:43:23;;;;;;;18.05;6.43;;;;;;;;;;5112697;28;20036;-52
2024/03/31 19:45:49;;;;;;;14.07;6.95;;;;;;;;;;5111975;28;20019;-54
2024/03/31 19:48:14;;;;;;;15.73;6.65;;;;;;;;;;5112797;28;20027;-52
2024/03/31 19:50:39;;;;;;;15.23;6.18;;;;;;;;;;5113255;28;20111;-51
2024/03/31 19:53:05;;;;;;;16.45;6.78;;;;;;;;;;5112427;27;20037;-50
2024/03/31 19:55:30;;;;;;;14.77;6.40;;;;;;;;;;5112737;27;20028;-52
2024/03/31 19:57:55;;;;;;;18.15;7.68;;;;;;;;;;5111558;28;20128;-53
2024/03/31 20:00:21;;;;;;;17.42;7.43;;;;;;;;;;5113019;28;20031;-52
2024/03/31 20:02:49;;;;;;;20.35;8.77;;;;;;;;;;5110680;28;20035;-52
2024/03/31 20:05:15;;;;;;;20.35;8.85;;;;;;;;;;5112289;28;20034;-52
2024/03/31 20:07:42;;;;;;;22.98;9.23;;;;;;;;;;5112958;28;20057;-55
2024/03/31 20:10:07;;;;;;;20.05;8.95;;;;;;;;;;5112890;28;20049;-60